Weather observations for the past three days for
Sparrevohn Airways Facilities Sector
| Date | Time (akdt) | Wind (mph) | Vis. (mi.) | Weather | Sky Cond. | Temperature (ºF) | Relative Humidity | Wind Chill (°F) | Heat Index (°F) | Pressure | Precipitation (in) | ||||||
|---|---|---|---|---|---|---|---|---|---|---|---|---|---|---|---|---|---|
| Air | Dwpt | 6 hour | altimeter (in) | sea level (mb) | 1 hr | 3 hr | 6 hr | ||||||||||
| Max. | Min. | ||||||||||||||||
| 04 | 14:55 | N 10 | 10.00 | Light Rain | OVC021 | 35.6 | 32 | 87% | 29 | 29.66 | 1006.0 | 0.02 | |||||
| 04 | 13:55 | Vrbl 6 | 10.00 | Light Rain | FEW024 OVC027 | 39.2 | 33.8 | 81% | 36 | 29.7 | 1007.0 | 0.07 | |||||
| 04 | 12:55 | NE 9 | 10.00 | Light Rain | FEW011 OVC031 | 36.9 | 33.4 | 87% | 31 | 29.73 | 1008.3 | 0.03 | 0.06 | ||||
| 04 | 11:55 | E 8 | 10.00 | Light Rain | OVC037 | 35.6 | 33.8 | 93% | 30 | 29.77 | 1009.5 | 0.02 | |||||
| 04 | 10:55 | E 7 | 10.00 | Light Rain | OVC041 | 35.6 | 35.6 | 100% | 31 | 29.78 | 1010.0 | 0.01 | |||||
| 04 | 09:55 | E 6 | 10.00 | Light Rain | OVC036 | 35.8 | 34.3 | 37.6 | 34.9 | 95% | 32 | 29.81 | 1010.8 | 0.02 | 0.03 | ||
| 04 | 08:55 | E 6 | 10.00 | Light Rain | OVC047 | 35.6 | 33.8 | 93% | 31 | 29.83 | 1011.6 | ||||||
| 04 | 06:55 | NE 8 | 10.00 | Drizzle | OVC041 | 35.6 | 32.7 | 89% | 30 | 29.87 | 1012.6 | 0.01 | 0.02 | ||||
| 04 | 05:55 | NE 6 | 10.00 | Light Rain | OVC037 | 35.6 | 32 | 87% | 31 | 29.89 | 1013.4 | 0.01 | |||||
| 04 | 04:55 | NE 5 | 10.00 | Light Rain | OVC042 | 35.6 | 33.8 | 93% | 32 | 29.9 | 1013.9 | ||||||
| 04 | 03:55 | NE 1 | 10.00 | Overcast | OVC055 | 37.2 | 32 | 40.8 | 36.3 | 81% | 29.91 | 1014.0 | |||||
| 04 | 02:55 | Calm | 10.00 | Overcast | FEW060 SCT085 OVC110 | 37.4 | 32 | 81% | 29.92 | 1014.5 | |||||||
| 04 | 01:55 | NW 2 | 10.00 | Overcast | OVC060 | 39.2 | 32 | 75% | 29.93 | 1014.9 | |||||||
| 04 | 00:55 | Calm | 10.00 | Overcast | BKN060 OVC090 | 38.5 | 31.8 | 77% | 29.94 | 1015.2 | |||||||
| 03 | 23:55 | Calm | 10.00 | Overcast | BKN070 OVC130 | 39.2 | 32 | 75% | 29.94 | 1015.3 | |||||||
| 03 | 22:55 | Vrbl 3 | 10.00 | Mostly Cloudy | BKN070 | 39.2 | 32 | 75% | 29.95 | 1015.5 | |||||||
| 03 | 21:55 | NW 5 | 10.00 | Overcast | OVC065 | 40.6 | 31.6 | 43.9 | 41 | 70% | 38 | 29.95 | 1015.6 | ||||
| 03 | 20:55 | Calm | 10.00 | Overcast | OVC060 | 41 | 32 | 70% | 29.95 | 1015.7 | |||||||
| 03 | 19:55 | W 3 | 10.00 | Overcast | OVC030 | 42.8 | 32 | 66% | 29.96 | 1016.1 | |||||||
| 03 | 18:55 | N 1 | 10.00 | Overcast | FEW036 OVC065 | 43.2 | 31.1 | 63% | 29.97 | 1016.3 | |||||||
| 03 | 17:55 | Calm | 10.00 | Mostly Cloudy | BKN055 | 42.8 | 32 | 66% | 29.98 | 1016.7 | |||||||
| 03 | 16:55 | W 7 | 10.00 | Mostly Cloudy | BKN043 | 42.8 | 32 | 66% | 39 | 30 | 1017.2 | ||||||
| 03 | 15:55 | SW 5 | 10.00 | Mostly Cloudy | BKN045 BKN180 | 42.6 | 30 | 43.5 | 37.2 | 61% | 40 | 30.01 | 1017.6 | ||||
| 03 | 14:55 | SW 3 | 10.00 | Overcast | FEW025 OVC042 | 41 | 30.2 | 66% | 30.01 | 1017.9 | |||||||
| 03 | 13:55 | SW 5 | 10.00 | Overcast | OVC045 | 41 | 32 | 70% | 38 | 30.03 | 1018.4 | ||||||
| 03 | 12:55 | S 5 | 10.00 | Mostly Cloudy | BKN047 | 41 | 32 | 70% | 38 | 30.03 | 1018.4 | ||||||
| 03 | 11:55 | S 5 | 10.00 | Mostly Cloudy | FEW017 BKN048 | 39.2 | 32 | 75% | 36 | 30.03 | 1018.7 | ||||||
| 03 | 10:55 | S 5 | 10.00 | Mostly Cloudy | BKN050 | 37.4 | 32 | 81% | 34 | 30.04 | 1018.9 | ||||||
| 03 | 09:55 | W 3 | 10.00 | Mostly Cloudy | BKN035 | 37.4 | 31.6 | 38.1 | 33.6 | 80% | 30.04 | 1018.9 | 0.01 | ||||
| 03 | 08:55 | S 2 | 10.00 | Partly Cloudy | FEW015 SCT036 | 37.4 | 32 | 81% | 30.03 | 1018.8 | |||||||
| 03 | 07:55 | Calm | 10.00 | Light Showers Rain | OVC028 | 35.6 | 32 | 87% | 30.03 | 1018.5 | |||||||
| 03 | 06:55 | SW 1 | 10.00 | Overcast | OVC026 | 34.5 | 31.6 | 89% | 30.03 | 1018.8 | 0.01 | ||||||
| 03 | 05:55 | NW 2 | 10.00 | Mostly Cloudy | FEW009 BKN026 BKN039 | 33.8 | 32 | 93% | 30.03 | 1018.6 | |||||||
| 03 | 04:55 | SW 2 | 10.00 | Overcast | FEW009 OVC020 | 33.8 | 32 | 93% | 30.03 | 1018.6 | 0.01 | ||||||
| 03 | 03:55 | S 5 | 10.00 | Light Showers Rain | FEW006 OVC022 | 33.8 | 32.4 | 36 | 32.7 | 94% | 30 | 30.02 | 1018.4 | 0.05 | |||
| 03 | 02:55 | S 12 | 10.00 | Light Showers Rain | FEW006 OVC019 | 33.8 | 32 | 93% | 26 | 30.03 | 1018.5 | ||||||
| 03 | 01:55 | S 5 | 7.00 | Light Snow | OVC005 | 33.8 | 32 | 93% | 30 | 30.02 | 1018.6 | 0.04 | |||||
| 03 | 00:55 | Vrbl 6 | 10.00 | Light Showers Rain | OVC008 | 34.9 | 32.7 | 92% | 30 | 30.01 | 1018.3 | 0.01 | |||||
| 02 | 23:55 | S 8 | 10.00 | Light Showers Rain | SCT007 OVC020 | 35.6 | 33.8 | 93% | 30 | 29.99 | 1017.6 | ||||||
| 02 | 22:55 | S 9 | 10.00 | Overcast | SCT007 BKN016 OVC044 | 35.6 | 33.8 | 93% | 29 | 29.98 | 1017.2 | 0.01 | |||||
| 02 | 21:55 | S 10 | 10.00 | Light Showers Rain | OVC008 | 35.4 | 33.3 | 39.7 | 35.1 | 92% | 28 | 29.96 | 1016.5 | 0.01 | 0.06 | ||
| 02 | 20:55 | S 9 G 22 | 10.00 | Light Showers Rain | OVC009 | 35.6 | 33.8 | 93% | 29 | 29.95 | 1016.0 | 0.01 | |||||
| 02 | 19:55 | S 10 | 10.00 | Overcast | OVC009 | 37.4 | 33.8 | 87% | 31 | 29.93 | 1015.4 | 0.01 | |||||
| 02 | 18:55 | SW 14 G 20 | 7.00 | Light Rain | OVC008 | 36.3 | 33.8 | 91% | 28 | 29.92 | 1015.1 | 0.01 | 0.03 | ||||
| 02 | 17:55 | S 12 | 10.00 | Mostly Cloudy | BKN010 | 37.4 | 35.6 | 93% | 30 | 29.91 | 1014.6 | 0.02 | |||||
| 02 | 16:55 | SW 13 | 4.00 | Light Showers Rain | OVC007 | 35.6 | 33.8 | 93% | 28 | 29.9 | 1014.5 | 0.01 | |||||
| 02 | 15:55 | S 16 G 23 | 10.00 | Light Showers Rain | BKN021 | 39.4 | 32.9 | 39.2 | 32.4 | 78% | 31 | 29.9 | 1014.1 | ||||
| 02 | 14:55 | S 15 G 24 | 10.00 | Mostly Cloudy | BKN018 | 39.2 | 30.2 | 70% | 31 | 29.88 | 1013.6 | ||||||
| 02 | 13:55 | S 16 G 24 | 10.00 | Light Showers Rain | OVC013 | 35.6 | 32 | 87% | 27 | 29.87 | 1013.5 | ||||||
| 02 | 12:55 | S 16 G 24 | 7.00 | Light Rain | OVC012 | 34.3 | 31.3 | 89% | 25 | 29.86 | 1013.0 | ||||||
| 02 | 11:55 | S 17 G 28 | 8.00 | Light Showers Rain | OVC011 | 33.8 | 30.2 | 87% | 24 | 29.84 | 1012.3 | ||||||
| 02 | 10:55 | S 18 | 8.00 | Light Snow | OVC007 | 33.8 | 30.2 | 87% | 24 | 29.81 | 1011.5 | ||||||
| 02 | 09:55 | S 23 G 28 | 6.00 | Light Snow and Breezy | OVC007 | 32.5 | 30.7 | 33.1 | 31.8 | 93% | 21 | 29.77 | 1010.2 | ||||
| 02 | 08:55 | S 16 G 25 | 2.50 | Light Snow | OVC006 | 32 | 30.2 | 93% | 22 | 29.74 | 1009.2 | ||||||
| 02 | 07:55 | S 21 G 28 | 6.00 | Light Snow and Breezy | OVC007 | 32 | 30.2 | 93% | 21 | 29.7 | 1007.8 | ||||||
| 02 | 06:55 | S 17 G 28 | 1.50 | Light Snow | OVC008 | 32 | 30.2 | 93% | 22 | 29.66 | 1006.5 | ||||||
| 02 | 05:55 | S 17 G 31 | 7.00 | Light Snow | OVC008 | 32 | 30.2 | 93% | 22 | 29.64 | 1005.7 | ||||||
| 02 | 04:55 | S 16 G 24 | 6.00 | Light Snow | OVC008 | 32 | 30.2 | 93% | 22 | 29.62 | 1004.9 | ||||||
| 02 | 03:55 | S 17 G 28 | 10.00 | Light Snow | OVC009 | 32.9 | 30.4 | 35.2 | 32.9 | 90% | 23 | 29.61 | 1004.3 | 0.01 | |||
| 02 | 02:55 | S 17 G 31 | 10.00 | Light Rain | OVC010 | 33.8 | 30.2 | 87% | 24 | 29.58 | 1003.3 | ||||||
| 02 | 01:55 | S 22 G 28 | 10.00 | Overcast and Breezy | OVC010 | 33.8 | 30.2 | 87% | 23 | 29.54 | 1001.9 | ||||||
| 02 | 00:55 | S 15 G 26 | 10.00 | Light Showers Rain | OVC009 | 33.8 | 31.3 | 91% | 25 | 29.5 | 1000.6 | 0.01 | |||||
| 01 | 23:55 | S 16 G 23 | 10.00 | Light Rain Snow | OVC008 | 33.8 | 32 | 93% | 24 | 29.46 | 999.3 | 0.01 | |||||
| 01 | 22:55 | S 13 G 23 | 10.00 | Light Rain | OVC009 | 33.8 | 32 | 93% | 25 | 29.43 | 997.9 | ||||||
| 01 | 21:55 | S 18 G 28 | 10.00 | Light Showers Rain | OVC015 | 34.9 | 31.3 | 37.4 | 34.2 | 87% | 25 | 29.39 | 996.5 | 0.03 | |||
| 01 | 20:55 | S 9 | 10.00 | Light Rain | OVC022 | 33.8 | 32 | 93% | 27 | 29.36 | 995.8 | ||||||
| 01 | 19:55 | SE 10 G 24 | 10.00 | Light Rain | OVC032 | 33.8 | 32 | 93% | 26 | 29.33 | 994.7 | 0.01 | |||||
| 01 | 18:55 | SE 15 G 18 | 10.00 | Light Rain | OVC030 | 34.9 | 31.3 | 87% | 26 | 29.32 | 993.9 | 0.02 | 0.02 | ||||
| 01 | 17:55 | SE 9 | 10.00 | Light Rain | OVC017 | 35.6 | 32 | 87% | 29 | 29.3 | 993.4 | 0.01 | |||||
| 01 | 16:55 | SE 13 | 10.00 | Light Rain | OVC019 | 35.6 | 32 | 87% | 28 | 29.29 | 993.0 | ||||||
| 01 | 15:55 | SE 13 G 25 | 10.00 | Light Rain | OVC023 | 37 | 30.9 | 41.7 | 34.9 | 79% | 30 | 29.28 | 992.6 | 0.01 | |||
| Date | Time (akdt) | Wind (mph) | Vis. (mi.) | Weather | Sky Cond. | Air | Dwpt | Max. | Min. | Relative Humidity | Wind Chill (°F) | Heat Index (°F) | altimeter (in) | sea level (mb) | 1 hr | 3 hr | 6 hr |
| 6 hour | |||||||||||||||||
| Temperature (ºF) | Pressure | Precipitation (in) | |||||||||||||||